Time;durP1;ratioP1;P1;durP2;ratioP2;P2;SDS_P1;SDS_P2;PMS_P1;PMS_P2;Temp;Humidity;BMP_temperature;BMP_pressure;BME280_temperature;BME280_humidity;BME280_pressure;Samples;Min_cycle;Max_cycle;Signal;HPM_P1;HPM_P2
2021/03/24 00:00:44;;;;;;;14.20;4.80;;;9.70;99.90;;;;;;4957928;29;20174;-80
2021/03/24 00:03:12;;;;;;;8.40;4.50;;;9.70;99.90;;;;;;4958121;29;20170;-80
2021/03/24 00:05:41;;;;;;;9.80;3.00;;;9.70;99.90;;;;;;4940747;29;20281;-80
2021/03/24 00:08:08;;;;;;;6.22;4.55;;;9.70;99.90;;;;;;4956181;23;20210;-78
2021/03/24 00:10:36;;;;;;;5.43;3.50;;;9.60;99.90;;;;;;4978187;28;20284;-78
2021/03/24 00:13:02;;;;;;;4.45;3.38;;;9.50;99.90;;;;;;4973159;28;20189;-77
2021/03/24 00:15:28;;;;;;;6.35;4.32;;;9.40;99.90;;;;;;4985887;28;20190;-80
2021/03/24 00:17:55;;;;;;;3.70;3.38;;;9.30;99.90;;;;;;4977263;28;20189;-77
2021/03/24 00:20:25;;;;;;;9.98;3.58;;;9.30;99.90;;;;;;4959892;28;20166;-77
2021/03/24 00:22:51;;;;;;;4.53;3.30;;;9.10;99.90;;;;;;4977358;28;20177;-79
2021/03/24 00:25:17;;;;;;;17.75;6.43;;;8.90;99.90;;;;;;4977379;28;20204;-78
2021/03/24 00:27:48;;;;;;;8.32;3.00;;;8.70;99.90;;;;;;4977078;28;20192;-79
2021/03/24 00:30:16;;;;;;;3.92;3.63;;;8.80;99.90;;;;;;4977000;28;20170;-78
2021/03/24 00:32:42;;;;;;;4.63;4.22;;;8.70;99.90;;;;;;4976829;28;20237;-77
2021/03/24 00:35:09;;;;;;;5.55;5.10;;;8.90;99.90;;;;;;4976830;28;20618;-77
2021/03/24 00:37:35;;;;;;;24.80;5.00;;;9.00;99.90;;;;;;4959456;28;20182;-77
2021/03/24 00:40:01;;;;;;;4.70;4.00;;;9.20;99.90;;;;;;4976962;28;20173;-78
2021/03/24 00:42:27;;;;;;;4.25;4.03;;;9.30;99.90;;;;;;4976778;28;20178;-81
2021/03/24 00:44:52;;;;;;;19.60;5.32;;;9.30;99.90;;;;;;4975666;28;20186;-79
2021/03/24 00:47:18;;;;;;;18.25;2.55;;;9.20;99.90;;;;;;4943382;28;20174;-78
2021/03/24 00:49:44;;;;;;;6.30;3.63;;;9.10;99.90;;;;;;4976557;28;20166;-78
2021/03/24 00:52:10;;;;;;;6.63;6.00;;;9.00;99.90;;;;;;4959165;28;20331;-79
2021/03/24 00:54:35;;;;;;;4.68;3.78;;;9.10;99.90;;;;;;4976546;28;20617;-78
2021/03/24 00:57:01;;;;;;;3.97;3.00;;;9.20;99.90;;;;;;4976478;28;20170;-80
2021/03/24 00:59:27;;;;;;;3.83;3.58;;;9.30;99.90;;;;;;4976013;28;20188;-78
2021/03/24 01:01:52;;;;;;;5.07;4.40;;;9.30;99.90;;;;;;4976341;28;20169;-78
2021/03/24 01:04:18;;;;;;;4.03;3.42;;;9.30;99.90;;;;;;4958889;28;20273;-78
2021/03/24 01:06:43;;;;;;;10.40;5.00;;;9.30;99.90;;;;;;4958948;28;20201;-79
2021/03/24 01:09:10;;;;;;;4.55;4.20;;;9.20;99.90;;;;;;4976063;28;20210;-78
2021/03/24 01:11:40;;;;;;;5.53;5.05;;;9.10;99.90;;;;;;4959152;28;20206;-78
2021/03/24 01:14:08;;;;;;;10.25;5.05;;;9.10;99.90;;;;;;4976041;28;20201;-77
2021/03/24 01:16:34;;;;;;;2.92;2.72;;;9.20;99.90;;;;;;4976313;28;20241;-77
2021/03/24 01:19:00;;;;;;;4.05;3.55;;;9.20;99.90;;;;;;4977103;28;20240;-77
2021/03/24 01:21:26;;;;;;;9.93;3.47;;;9.20;99.90;;;;;;4980787;28;20178;-77
2021/03/24 01:23:51;;;;;;;5.95;4.47;;;9.00;99.90;;;;;;4977771;28;20201;-77
2021/03/24 01:26:18;;;;;;;6.63;3.72;;;9.00;99.90;;;;;;4976650;28;20170;-78
2021/03/24 01:28:44;;;;;;;6.72;5.65;;;8.80;99.90;;;;;;4976337;28;20326;-80
2021/03/24 01:31:10;;;;;;;2.97;2.78;;;8.90;99.90;;;;;;4975928;28;20718;-76
2021/03/24 01:33:35;;;;;;;12.15;4.47;;;8.90;99.90;;;;;;4976183;28;20236;-78
2021/03/24 01:36:01;;;;;;;5.47;4.07;;;8.80;99.90;;;;;;4975861;28;20245;-77
2021/03/24 01:38:27;;;;;;;6.18;4.03;;;8.90;99.90;;;;;;4975595;28;20257;-77
2021/03/24 01:40:59;;;;;;;4.93;2.70;;;9.00;99.90;;;;;;4975798;28;20680;-78
2021/03/24 01:43:32;;;;;;;2.78;2.58;;;8.90;99.90;;;;;;4975638;28;20256;-77
2021/03/24 01:46:19;;;;;;;12.48;4.25;;;8.90;99.90;;;;;;4975571;28;20170;-77
2021/03/24 01:48:56;;;;;;;3.75;2.83;;;8.70;99.90;;;;;;4975491;28;20173;-77
2021/03/24 01:51:40;;;;;;;20.40;6.82;;;8.80;99.90;;;;;;4975525;28;20209;-77
2021/03/24 01:54:10;;;;;;;7.18;5.32;;;8.60;99.90;;;;;;4960081;28;20198;-78
2021/03/24 01:56:37;;;;;;;7.53;3.70;;;8.60;99.90;;;;;;4975416;28;20162;-81
2021/03/24 01:59:03;;;;;;;6.28;3.08;;;8.40;99.90;;;;;;4975394;28;20197;-78
2021/03/24 02:01:28;;;;;;;7.60;5.82;;;8.30;99.90;;;;;;4958026;28;20166;-78
2021/03/24 02:03:54;;;;;;;8.23;3.90;;;8.10;99.90;;;;;;4975202;28;20201;-83
2021/03/24 02:06:49;;;;;;;7.88;5.00;;;8.20;99.90;;;;;;4975309;28;20223;-77
2021/03/24 02:09:21;;;;;;;5.25;4.55;;;8.10;99.90;;;;;;4889328;28;20237;-78
2021/03/24 02:12:07;;;;;;;4.35;3.95;;;8.30;99.90;;;;;;4957972;28;20225;-78
2021/03/24 02:14:37;;;;;;;7.60;3.40;;;8.40;99.90;;;;;;4957776;28;20716;-79
2021/03/24 02:17:04;;;;;;;6.43;5.93;;;8.40;99.90;;;;;;4974962;28;20526;-77
2021/03/24 02:19:57;;;;;;;5.50;4.97;;;8.40;99.90;;;;;;4975025;28;20252;-77
2021/03/24 02:22:27;;;;;;;7.65;4.30;;;8.30;99.90;;;;;;4957679;28;20582;-79
2021/03/24 02:25:16;;;;;;;7.18;4.18;;;8.20;99.90;;;;;;4974824;28;20546;-78
2021/03/24 02:27:48;;;;;;;13.13;6.20;;;8.20;99.90;;;;;;4968651;28;20258;-79
2021/03/24 02:30:16;;;;;;;5.38;4.97;;;8.30;99.90;;;;;;4957668;28;20181;-79
2021/03/24 02:32:47;;;;;;;4.70;4.18;;;8.40;99.90;;;;;;4957501;28;20256;-77
2021/03/24 02:35:19;;;;;;;5.60;4.38;;;8.20;99.90;;;;;;4974785;28;20268;-78
2021/03/24 02:37:46;;;;;;;4.18;3.75;;;8.30;99.90;;;;;;4974685;28;20189;-78
2021/03/24 02:40:16;;;;;;;4.97;3.17;;;8.40;99.90;;;;;;4974893;28;20177;-78
2021/03/24 02:42:43;;;;;;;9.73;6.70;;;8.50;99.90;;;;;;4974646;28;20231;-78
2021/03/24 02:45:12;;;;;;;3.53;2.92;;;8.60;99.90;;;;;;4974836;28;20522;-77
2021/03/24 02:47:39;;;;;;;8.30;4.82;;;8.50;99.90;;;;;;4974510;28;20248;-84
2021/03/24 02:50:06;;;;;;;6.28;4.20;;;8.50;99.90;;;;;;4974544;28;20170;-77
2021/03/24 02:52:33;;;;;;;8.30;5.72;;;8.50;99.90;;;;;;4974719;28;20190;-81
2021/03/24 02:54:59;;;;;;;3.05;2.88;;;8.50;99.90;;;;;;4974514;28;20691;-77
2021/03/24 02:57:25;;;;;;;4.78;4.28;;;8.60;99.90;;;;;;4974629;28;20169;-77
2021/03/24 02:59:52;;;;;;;9.35;5.55;;;8.60;99.90;;;;;;4974478;28;20185;-79
2021/03/24 03:02:21;;;;;;;5.85;4.85;;;8.50;99.90;;;;;;4974426;28;20161;-79
2021/03/24 03:04:57;;;;;;;4.47;4.07;;;8.50;99.90;;;;;;4974556;28;20193;-78
2021/03/24 03:07:33;;;;;;;7.18;4.95;;;8.50;99.90;;;;;;4973839;28;20189;-77
2021/03/24 03:10:07;;;;;;;8.88;4.97;;;8.50;99.90;;;;;;4974176;28;20225;-79
2021/03/24 03:12:43;;;;;;;8.07;4.43;;;8.50;99.90;;;;;;4974317;28;20299;-80
2021/03/24 03:15:17;;;;;;;29.45;7.40;;;8.50;99.90;;;;;;4974243;28;20185;-79
2021/03/24 03:17:52;;;;;;;11.93;5.38;;;8.60;99.90;;;;;;4974804;28;20177;-82
2021/03/24 03:20:24;;;;;;;7.95;4.57;;;8.60;99.90;;;;;;4974296;28;20216;-80
2021/03/24 03:22:58;;;;;;;32.80;6.38;;;8.40;99.90;;;;;;4974271;28;20173;-78
2021/03/24 03:25:27;;;;;;;21.00;7.10;;;8.20;99.90;;;;;;4974128;28;20197;-78
2021/03/24 03:27:55;;;;;;;10.00;4.32;;;8.10;99.90;;;;;;4974239;28;20166;-77
2021/03/24 03:30:27;;;;;;;10.73;6.05;;;8.00;99.90;;;;;;4974250;28;20173;-78
2021/03/24 03:32:57;;;;;;;3.97;3.65;;;8.10;99.90;;;;;;4956937;28;20300;-78
2021/03/24 03:35:24;;;;;;;15.18;4.95;;;8.00;99.90;;;;;;4956872;28;20233;-77
2021/03/24 03:37:53;;;;;;;3.42;3.15;;;7.90;99.90;;;;;;4973949;28;20171;-77
2021/03/24 03:40:21;;;;;;;17.73;6.65;;;7.80;99.90;;;;;;4974213;28;20206;-78
2021/03/24 03:42:48;;;;;;;4.93;4.53;;;7.70;99.90;;;;;;4974238;28;20630;-77
2021/03/24 03:45:14;;;;;;;6.90;5.55;;;7.80;99.90;;;;;;4974046;28;20321;-77
2021/03/24 03:47:42;;;;;;;4.13;3.70;;;8.10;99.90;;;;;;4974011;28;20170;-77
2021/03/24 03:50:13;;;;;;;3.58;2.28;;;7.90;99.90;;;;;;4974114;28;20162;-77
2021/03/24 03:53:09;;;;;;;3.75;3.30;;;7.70;99.90;;;;;;4958238;28;20221;-77
2021/03/24 03:55:41;;;;;;;5.28;4.72;;;7.60;99.90;;;;;;4972941;28;20232;-78
2021/03/24 03:58:38;;;;;;;3.92;3.63;;;7.70;99.90;;;;;;4957052;28;20528;-77
2021/03/24 04:01:26;;;;;;;6.45;3.88;;;7.70;99.90;;;;;;4973782;28;20170;-77
2021/03/24 04:04:02;;;;;;;19.80;7.22;;;7.70;99.90;;;;;;4973802;28;20201;-77
2021/03/24 04:06:36;;;;;;;10.13;4.47;;;7.60;99.90;;;;;;4956469;28;20236;-78
2021/03/24 04:09:02;;;;;;;8.52;4.82;;;7.50;99.90;;;;;;4973615;28;20214;-77
2021/03/24 04:11:32;;;;;;;5.07;4.68;;;7.70;99.90;;;;;;4973816;28;20256;-78
2021/03/24 04:14:01;;;;;;;3.85;2.83;;;7.60;99.90;;;;;;4973516;28;20189;-76
2021/03/24 04:16:28;;;;;;;3.47;2.97;;;7.40;99.90;;;;;;4973718;28;20177;-78
2021/03/24 04:19:01;;;;;;;4.18;3.90;;;7.40;99.90;;;;;;4973834;28;20162;-77
2021/03/24 04:21:30;;;;;;;2.97;2.78;;;7.40;99.90;;;;;;4977145;28;20621;-77
2021/03/24 04:24:07;;;;;;;5.63;5.15;;;7.40;99.90;;;;;;4959669;28;20565;-78
2021/03/24 04:26:47;;;;;;;4.90;4.40;;;7.40;99.90;;;;;;4976920;28;20170;-77
2021/03/24 04:29:29;;;;;;;5.50;4.55;;;7.30;99.90;;;;;;4976933;28;20166;-77
2021/03/24 04:31:58;;;;;;;6.28;4.70;;;7.40;99.90;;;;;;4976905;28;20209;-79
2021/03/24 04:34:24;;;;;;;10.35;4.53;;;7.50;99.90;;;;;;4976922;28;20271;-77
2021/03/24 04:37:01;;;;;;;4.35;3.95;;;7.30;99.90;;;;;;4976787;28;20264;-77
2021/03/24 04:39:36;;;;;;;18.85;3.65;;;7.10;99.90;;;;;;4959561;28;20178;-79
2021/03/24 04:42:07;;;;;;;8.23;4.93;;;7.10;99.90;;;;;;4976805;28;20605;-77
2021/03/24 04:44:36;;;;;;;6.03;5.60;;;7.20;99.90;;;;;;4976703;28;20268;-78
2021/03/24 04:47:13;;;;;;;5.10;4.57;;;7.30;99.90;;;;;;4976530;28;20174;-78
2021/03/24 04:49:52;;;;;;;5.78;3.65;;;7.20;99.90;;;;;;4976339;28;20172;-77
2021/03/24 04:52:20;;;;;;;8.88;4.78;;;7.20;99.90;;;;;;4976420;28;20623;-78
2021/03/24 04:54:47;;;;;;;6.85;4.07;;;7.30;99.90;;;;;;4976311;28;20194;-78
2021/03/24 04:57:18;;;;;;;3.47;3.22;;;7.30;99.90;;;;;;4976448;28;20174;-77
2021/03/24 04:59:50;;;;;;;20.15;5.68;;;7.10;99.90;;;;;;4976462;28;20224;-79
2021/03/24 05:02:22;;;;;;;13.05;6.07;;;7.10;99.90;;;;;;4976403;28;20165;-78
2021/03/24 05:04:55;;;;;;;6.50;4.43;;;7.30;99.90;;;;;;4976268;28;20194;-77
2021/03/24 05:07:34;;;;;;;5.75;4.63;;;7.40;99.90;;;;;;4958806;28;20613;-78
2021/03/24 05:10:00;;;;;;;7.22;3.80;;;7.60;99.90;;;;;;4975923;28;20213;-77
2021/03/24 05:12:31;;;;;;;8.60;5.18;;;7.50;99.90;;;;;;4976066;28;20216;-77
2021/03/24 05:15:12;;;;;;;4.78;3.50;;;7.60;99.90;;;;;;4975976;28;20241;-77
2021/03/24 05:17:41;;;;;;;8.43;5.90;;;7.50;99.90;;;;;;4975922;28;20205;-78
2021/03/24 05:20:31;;;;;;;3.90;3.33;;;7.40;99.90;;;;;;4975954;28;20202;-77
2021/03/24 05:22:58;;;;;;;42.53;4.47;;;7.40;99.90;;;;;;4975909;28;20170;-80
2021/03/24 05:25:36;;;;;;;7.88;5.57;;;7.50;99.90;;;;;;4975821;28;20214;-77
2021/03/24 05:28:29;;;;;;;5.57;4.25;;;7.50;99.90;;;;;;4975872;28;20164;-78
2021/03/24 05:31:02;;;;;;;7.95;3.60;;;7.60;99.90;;;;;;4975220;28;20170;-78
2021/03/24 05:33:32;;;;;;;4.57;3.10;;;7.80;99.90;;;;;;4975705;28;20286;-79
2021/03/24 05:36:19;;;;;;;4.05;3.08;;;7.70;99.90;;;;;;4975709;28;20474;-79
2021/03/24 05:38:47;;;;;;;8.90;6.22;;;7.60;99.90;;;;;;4975685;28;20256;-78
2021/03/24 05:41:51;;;;;;;12.93;6.40;;;7.60;99.90;;;;;;4975576;28;20170;-79
2021/03/24 05:44:39;;;;;;;5.22;4.07;;;7.50;99.90;;;;;;4941520;28;20553;-80
2021/03/24 05:47:42;;;;;;;7.20;5.15;;;7.40;99.90;;;;;;4975950;28;20169;-80
2021/03/24 05:50:49;;;;;;;6.60;4.38;;;7.50;99.90;;;;;;4975617;28;20177;-78
2021/03/24 05:53:29;;;;;;;7.72;4.32;;;7.50;99.90;;;;;;4975742;28;20190;-79
2021/03/24 05:56:11;;;;;;;9.90;5.80;;;7.60;99.90;;;;;;4975725;28;20173;-79
2021/03/24 05:59:13;;;;;;;8.10;4.70;;;7.60;99.90;;;;;;4975268;28;20174;-78
2021/03/24 06:01:49;;;;;;;5.05;4.00;;;7.50;99.90;;;;;;4975172;28;20237;-80
2021/03/24 06:04:38;;;;;;;4.50;3.63;;;7.50;99.90;;;;;;4975586;28;20185;-78
2021/03/24 06:07:25;;;;;;;7.55;5.28;;;7.70;99.90;;;;;;4957740;28;20182;-77
2021/03/24 06:10:25;;;;;;;12.80;4.60;;;7.50;99.90;;;;;;4974790;28;20217;-78
2021/03/24 06:13:00;;;;;;;35.22;5.93;;;7.70;99.90;;;;;;4975334;28;20209;-77
2021/03/24 06:15:59;;;;;;;27.27;6.03;;;7.80;99.90;;;;;;4974833;28;20267;-78
2021/03/24 06:18:46;;;;;;;9.98;4.50;;;7.90;99.90;;;;;;4957466;28;20174;-77
2021/03/24 06:21:26;;;;;;;7.07;3.60;;;7.90;99.90;;;;;;4974912;28;20239;-76
2021/03/24 06:24:05;;;;;;;7.57;5.20;;;8.10;99.90;;;;;;4976255;28;20670;-77
2021/03/24 06:26:37;;;;;;;9.35;3.78;;;8.20;99.90;;;;;;4976743;28;20482;-78
2021/03/24 06:29:28;;;;;;;14.88;4.47;;;8.10;99.90;;;;;;4975778;28;20158;-79
2021/03/24 06:32:15;;;;;;;5.05;4.50;;;8.10;99.90;;;;;;4975075;28;20193;-81
2021/03/24 06:35:10;;;;;;;4.38;2.40;;;8.20;99.90;;;;;;4975249;28;20309;-78
2021/03/24 06:37:46;;;;;;;3.90;3.63;;;8.40;99.90;;;;;;4974500;28;20174;-82
2021/03/24 06:40:38;;;;;;;4.75;3.13;;;8.50;99.90;;;;;;4975083;28;20173;-80
2021/03/24 06:43:53;;;;;;;9.75;5.65;;;8.60;99.90;;;;;;4974386;28;20162;-81
2021/03/24 06:46:32;;;;;;;5.75;4.30;;;8.70;99.90;;;;;;4933797;28;20649;-80
2021/03/24 06:49:31;;;;;;;6.63;5.47;;;8.70;99.90;;;;;;4975547;28;20261;-75
2021/03/24 06:52:30;;;;;;;2.65;2.55;;;8.80;99.90;;;;;;4974865;28;20201;-75
2021/03/24 06:55:35;;;;;;;4.50;3.05;;;8.80;99.90;;;;;;4977329;28;20192;-81
2021/03/24 06:58:33;;;;;;;5.57;4.15;;;9.10;99.90;;;;;;4977120;28;20637;-81
2021/03/24 07:01:26;;;;;;;6.30;3.90;;;9.00;99.90;;;;;;4975927;28;20169;-80
2021/03/24 07:03:52;;;;;;;8.82;4.95;;;9.10;99.90;;;;;;4974628;28;20197;-78
2021/03/24 07:06:32;;;;;;;22.83;5.00;;;9.20;99.90;;;;;;4975661;28;20192;-79
2021/03/24 07:09:20;;;;;;;6.60;3.67;;;9.10;99.90;;;;;;4959054;28;20228;-79
2021/03/24 07:12:17;;;;;;;6.38;2.58;;;9.30;99.90;;;;;;4959294;28;20205;-88
2021/03/24 07:15:16;;;;;;;5.88;4.28;;;9.30;99.90;;;;;;4977035;28;20189;-89
2021/03/24 07:18:07;;;;;;;5.95;4.25;;;9.40;99.90;;;;;;4977213;28;20165;-81
2021/03/24 07:20:57;;;;;;;13.15;7.10;;;9.50;99.90;;;;;;4975689;28;20162;-84
2021/03/24 07:23:32;;;;;;;6.05;3.90;;;9.60;99.90;;;;;;4975913;28;20260;-86
2021/03/24 07:26:04;;;;;;;11.07;3.72;;;9.50;99.90;;;;;;4976380;28;20161;-79
2021/03/24 07:28:57;;;;;;;14.38;6.38;;;9.40;99.90;;;;;;4958736;28;20191;-79
2021/03/24 07:31:41;;;;;;;8.88;4.55;;;9.50;99.90;;;;;;4963534;28;20202;-83
2021/03/24 07:34:26;;;;;;;7.55;3.60;;;9.50;99.90;;;;;;4957969;28;20715;-83
2021/03/24 07:37:20;;;;;;;4.80;4.32;;;9.60;99.90;;;;;;4938827;29;20183;-76
2021/03/24 07:39:58;;;;;;;7.53;4.28;;;9.60;99.90;;;;;;4954556;29;20175;-75
2021/03/24 07:42:47;;;;;;;8.80;3.83;;;9.70;99.90;;;;;;4954251;29;20174;-75
2021/03/24 07:45:28;;;;;;;5.78;5.07;;;9.70;99.90;;;;;;4954328;29;20696;-74
2021/03/24 07:48:31;;;;;;;4.22;3.78;;;9.90;99.90;;;;;;4954572;29;20170;-75
2021/03/24 07:51:05;;;;;;;4.75;4.00;;;10.00;99.90;;;;;;4954139;29;20202;-75
2021/03/24 07:53:43;;;;;;;4.22;2.97;;;10.20;99.90;;;;;;4955287;28;20171;-74
2021/03/24 07:56:35;;;;;;;5.18;3.63;;;10.40;99.90;;;;;;4958061;29;20181;-74
2021/03/24 07:59:19;;;;;;;3.00;2.80;;;10.40;99.90;;;;;;4958062;29;20163;-74
2021/03/24 08:02:03;;;;;;;7.80;5.13;;;10.50;99.90;;;;;;4949986;28;20208;-74
2021/03/24 08:04:52;;;;;;;4.57;3.88;;;10.30;99.90;;;;;;4975728;28;20190;-75
2021/03/24 08:07:28;;;;;;;4.03;3.75;;;10.20;99.90;;;;;;4975098;28;20197;-75
2021/03/24 08:10:18;;;;;;;8.50;6.15;;;10.30;99.90;;;;;;4975609;28;20226;-75
2021/03/24 08:13:06;;;;;;;11.40;6.82;;;10.30;99.90;;;;;;4968540;28;20315;-73
2021/03/24 08:15:54;;;;;;;5.70;5.00;;;10.50;99.90;;;;;;4963697;28;20420;-74
2021/03/24 08:18:27;;;;;;;4.18;3.78;;;10.40;99.90;;;;;;4943450;28;20182;-75
2021/03/24 08:21:23;;;;;;;6.47;2.80;;;10.60;99.90;;;;;;4975550;28;20174;-75
2021/03/24 08:24:16;;;;;;;9.95;6.97;;;10.60;99.90;;;;;;4973283;28;20655;-74
2021/03/24 08:26:49;;;;;;;4.82;4.32;;;10.80;99.90;;;;;;4956395;29;20159;-75
2021/03/24 08:29:33;;;;;;;6.70;4.10;;;10.90;99.90;;;;;;4956336;29;20170;-75
2021/03/24 08:32:30;;;;;;;5.45;3.05;;;11.00;99.90;;;;;;4956390;29;20559;-74
2021/03/24 08:35:24;;;;;;;8.43;4.30;;;11.00;99.90;;;;;;4956390;29;20214;-74
2021/03/24 08:38:15;;;;;;;4.50;3.65;;;11.10;99.90;;;;;;4956196;28;20187;-75
2021/03/24 08:41:10;;;;;;;5.22;2.78;;;11.10;99.90;;;;;;4964050;28;20261;-75
2021/03/24 08:43:49;;;;;;;7.63;5.25;;;11.30;99.90;;;;;;4956105;29;20170;-74
2021/03/24 08:46:37;;;;;;;4.05;3.67;;;11.50;99.90;;;;;;4955661;29;20665;-75
2021/03/24 08:49:17;;;;;;;5.20;4.18;;;11.60;99.90;;;;;;4955329;29;20166;-74
2021/03/24 08:51:51;;;;;;;6.63;3.97;;;11.70;99.90;;;;;;4955927;29;20234;-74
2021/03/24 08:54:39;;;;;;;6.70;3.50;;;11.90;99.90;;;;;;4955928;29;20217;-76
2021/03/24 08:57:22;;;;;;;10.38;4.18;;;11.90;99.90;;;;;;4955975;29;20621;-76
2021/03/24 08:59:55;;;;;;;4.45;2.75;;;12.00;99.90;;;;;;4957253;28;20170;-75
2021/03/24 09:02:20;;;;;;;12.35;4.32;;;12.00;99.90;;;;;;4956053;29;20987;-76
2021/03/24 09:05:18;;;;;;;5.20;4.70;;;12.10;99.90;;;;;;4954960;28;20289;-75
2021/03/24 09:08:27;;;;;;;15.55;5.07;;;12.30;99.90;;;;;;4955608;29;20277;-77
2021/03/24 09:11:21;;;;;;;6.50;4.15;;;12.40;99.90;;;;;;4947959;29;20206;-75
2021/03/24 09:14:15;;;;;;;5.22;4.32;;;12.50;99.90;;;;;;4963553;28;20620;-75
2021/03/24 09:17:04;;;;;;;6.38;4.57;;;12.60;99.90;;;;;;4961784;28;20177;-75
2021/03/24 09:20:11;;;;;;;5.72;2.63;;;12.70;99.90;;;;;;4946978;28;20194;-74
2021/03/24 09:22:58;;;;;;;10.77;2.88;;;12.70;99.90;;;;;;4958902;28;20178;-75
2021/03/24 09:26:07;;;;;;;4.60;3.35;;;12.80;99.90;;;;;;4959868;28;20273;-75
2021/03/24 09:28:46;;;;;;;4.15;3.05;;;12.90;99.90;;;;;;4858731;29;20197;-77
2021/03/24 09:31:21;;;;;;;1.75;1.60;;;13.00;99.90;;;;;;4946268;28;20187;-77
2021/03/24 09:34:02;;;;;;;3.10;2.10;;;13.10;99.90;;;;;;4937866;29;20206;-75
2021/03/24 09:36:37;;;;;;;3.10;2.90;;;13.20;99.90;;;;;;4955240;29;20246;-75
2021/03/24 09:39:18;;;;;;;4.25;3.28;;;13.30;99.90;;;;;;4954857;29;20178;-75
2021/03/24 09:41:59;;;;;;;16.45;3.33;;;13.50;99.90;;;;;;4954713;28;21962;-74
2021/03/24 09:44:29;;;;;;;12.15;4.65;;;13.70;99.90;;;;;;4937535;28;20551;-74
2021/03/24 09:46:55;;;;;;;4.28;3.33;;;13.90;99.90;;;;;;4954659;28;20253;-74
2021/03/24 09:49:36;;;;;;;7.82;3.15;;;13.90;99.90;;;;;;4954378;29;20225;-75
2021/03/24 09:52:29;;;;;;;3.58;2.13;;;13.90;99.90;;;;;;4955165;28;20202;-74
2021/03/24 09:55:08;;;;;;;6.55;4.00;;;14.10;99.90;;;;;;4954745;29;20543;-75
2021/03/24 09:57:55;;;;;;;3.15;2.75;;;14.20;99.90;;;;;;4937317;29;20237;-73
2021/03/24 10:00:22;;;;;;;24.52;4.10;;;14.20;99.90;;;;;;4936322;29;20560;-74
2021/03/24 10:02:53;;;;;;;6.30;3.67;;;14.10;99.90;;;;;;4954382;29;20167;-74
2021/03/24 10:05:29;;;;;;;7.03;2.65;;;14.10;99.90;;;;;;4954500;29;20191;-74
2021/03/24 10:08:06;;;;;;;5.82;2.90;;;14.10;99.90;;;;;;4954293;29;20258;-73
2021/03/24 10:10:34;;;;;;;3.13;2.83;;;14.20;99.90;;;;;;4935783;29;20206;-73
2021/03/24 10:13:25;;;;;;;6.78;3.30;;;14.10;99.90;;;;;;4954335;29;20639;-74
2021/03/24 10:15:59;;;;;;;3.25;2.17;;;14.20;99.90;;;;;;4954150;28;20232;-74
2021/03/24 10:18:28;;;;;;;3.33;3.05;;;14.20;99.90;;;;;;4954100;29;20261;-74
2021/03/24 10:21:14;;;;;;;2.10;2.00;;;14.30;99.90;;;;;;4953957;29;20167;-74
2021/03/24 10:23:46;;;;;;;6.10;3.80;;;14.40;99.90;;;;;;4936477;29;20206;-74
2021/03/24 10:26:16;;;;;;;2.85;1.73;;;14.50;99.90;;;;;;4953723;28;20178;-75
2021/03/24 10:29:06;;;;;;;2.30;2.10;;;14.50;99.90;;;;;;4944753;28;20266;-75
2021/03/24 10:31:39;;;;;;;2.78;1.95;;;14.50;99.90;;;;;;4953392;29;20206;-74
2021/03/24 10:34:21;;;;;;;2.45;2.20;;;14.60;99.90;;;;;;4954185;29;20205;-75
2021/03/24 10:36:56;;;;;;;7.38;2.65;;;14.60;99.90;;;;;;4953636;29;20170;-75
2021/03/24 10:39:49;;;;;;;4.60;2.92;;;14.50;99.90;;;;;;4954339;29;20617;-75
2021/03/24 10:42:38;;;;;;;8.38;2.60;;;14.50;99.90;;;;;;4953724;29;20163;-75
2021/03/24 10:45:20;;;;;;;68.15;5.10;;;14.60;99.90;;;;;;4953755;29;20562;-74
2021/03/24 10:47:55;;;;;;;12.52;3.42;;;14.60;99.90;;;;;;4936480;29;20178;-75
2021/03/24 10:50:50;;;;;;;9.27;4.40;;;14.50;99.90;;;;;;4953613;29;20162;-75
2021/03/24 10:53:24;;;;;;;3.67;2.67;;;14.50;99.90;;;;;;4953266;29;20206;-75
2021/03/24 10:56:31;;;;;;;7.32;4.07;;;14.40;99.90;;;;;;4953177;29;20653;-74
2021/03/24 10:59:32;;;;;;;2.72;2.17;;;14.60;99.90;;;;;;4953434;29;20536;-75
2021/03/24 11:02:21;;;;;;;4.63;2.53;;;14.90;99.90;;;;;;4953349;29;20159;-75
2021/03/24 11:05:04;;;;;;;7.32;3.38;;;14.90;99.90;;;;;;4953486;29;20201;-75
2021/03/24 11:07:53;;;;;;;2.22;1.52;;;14.90;99.90;;;;;;4956061;28;20173;-75
2021/03/24 11:10:47;;;;;;;5.15;3.58;;;14.90;99.90;;;;;;4956519;28;20222;-75
2021/03/24 11:13:19;;;;;;;4.50;2.65;;;15.00;99.90;;;;;;4962689;28;20213;-75
2021/03/24 11:15:52;;;;;;;6.80;2.80;;;14.90;99.90;;;;;;4942328;28;20194;-75
2021/03/24 11:18:26;;;;;;;10.25;2.88;;;14.90;99.90;;;;;;4960570;28;20186;-75
2021/03/24 11:20:55;;;;;;;6.82;2.85;;;14.80;99.90;;;;;;4960982;28;20202;-76
2021/03/24 11:23:26;;;;;;;2.30;1.98;;;14.80;99.90;;;;;;4960542;28;20249;-76
2021/03/24 11:25:57;;;;;;;39.47;2.47;;;14.90;99.90;;;;;;4966350;28;20182;-77
2021/03/24 11:28:32;;;;;;;5.07;2.42;;;15.00;99.90;;;;;;4958714;28;20221;-76
2021/03/24 11:31:23;;;;;;;2.45;2.25;;;15.20;99.90;;;;;;4960564;28;20169;-76
2021/03/24 11:33:55;;;;;;;18.17;3.33;;;15.10;99.90;;;;;;4977547;28;20209;-75
2021/03/24 11:36:27;;;;;;;14.18;3.75;;;15.20;99.90;;;;;;4977089;28;20509;-76
2021/03/24 11:39:03;;;;;;;2.08;1.88;;;15.20;99.90;;;;;;4977473;28;20170;-76
2021/03/24 11:41:33;;;;;;;3.75;2.55;;;15.30;99.90;;;;;;4977213;28;20169;-77
2021/03/24 11:44:03;;;;;;;2.15;2.03;;;15.20;99.90;;;;;;4949557;29;20258;-77
2021/03/24 11:46:40;;;;;;;1.77;1.65;;;15.10;99.90;;;;;;4957882;29;20171;-76
2021/03/24 11:49:25;;;;;;;5.40;2.53;;;15.20;99.90;;;;;;4958223;29;20566;-76
2021/03/24 11:51:56;;;;;;;2.88;2.67;;;15.20;99.90;;;;;;4957461;29;20692;-77
2021/03/24 11:54:38;;;;;;;4.20;1.92;;;15.20;99.90;;;;;;4940520;29;20296;-76
2021/03/24 11:57:31;;;;;;;4.45;2.75;;;15.20;99.90;;;;;;4957859;29;20257;-75
2021/03/24 12:00:22;;;;;;;2.72;2.30;;;15.20;99.90;;;;;;4957753;29;20622;-75
2021/03/24 12:03:15;;;;;;;5.22;2.53;;;15.40;99.90;;;;;;4957634;29;20171;-75
2021/03/24 12:06:02;;;;;;;4.07;2.72;;;15.50;99.90;;;;;;4957466;29;20190;-76
2021/03/24 12:08:47;;;;;;;3.72;2.53;;;15.60;99.90;;;;;;4957708;29;20220;-75
2021/03/24 12:11:26;;;;;;;4.18;2.42;;;15.80;99.90;;;;;;4956499;28;20221;-76
2021/03/24 12:14:17;;;;;;;5.07;3.10;;;15.90;99.90;;;;;;4956819;29;20209;-75
2021/03/24 12:16:47;;;;;;;5.55;2.58;;;15.80;99.90;;;;;;4957517;29;20170;-75
2021/03/24 12:19:37;;;;;;;7.97;2.92;;;15.80;99.90;;;;;;4957248;29;20197;-75
2021/03/24 12:22:06;;;;;;;4.13;2.50;;;15.90;99.90;;;;;;4957477;29;20173;-75
2021/03/24 12:24:39;;;;;;;14.15;3.03;;;15.80;99.90;;;;;;4957389;29;20199;-75
2021/03/24 12:27:18;;;;;;;6.10;2.85;;;15.70;99.90;;;;;;4957137;29;20244;-76
2021/03/24 12:30:07;;;;;;;2.15;1.98;;;15.70;99.90;;;;;;4957438;29;20654;-75
2021/03/24 12:32:36;;;;;;;2.05;1.73;;;15.70;99.90;;;;;;4959364;28;20218;-76
2021/03/24 12:35:06;;;;;;;6.28;2.47;;;15.70;99.90;;;;;;4955279;29;20182;-75
2021/03/24 12:37:40;;;;;;;4.90;2.55;;;15.80;99.90;;;;;;4956170;28;20634;-73
2021/03/24 12:40:09;;;;;;;3.78;2.60;;;15.90;99.90;;;;;;4954557;28;20184;-74
2021/03/24 12:42:35;;;;;;;2.08;1.75;;;15.90;99.90;;;;;;4955570;29;20217;-75
2021/03/24 12:45:22;;;;;;;2.55;2.35;;;15.90;99.90;;;;;;4956085;29;20288;-74
2021/03/24 12:47:49;;;;;;;10.07;2.90;;;16.00;99.90;;;;;;4955661;29;20642;-74
2021/03/24 12:50:19;;;;;;;1.55;1.45;;;16.00;99.90;;;;;;4938366;29;20470;-74
2021/03/24 12:52:59;;;;;;;3.83;2.97;;;15.90;99.90;;;;;;4955180;29;20256;-74
2021/03/24 12:55:25;;;;;;;6.03;1.13;;;15.90;99.90;;;;;;4955715;29;20190;-75
2021/03/24 12:57:50;;;;;;;1.52;1.42;;;15.90;99.90;;;;;;4955548;29;20189;-75
2021/03/24 13:00:34;;;;;;;8.77;1.38;;;16.00;99.90;;;;;;4955005;29;20170;-74
2021/03/24 13:03:19;;;;;;;6.82;2.08;;;16.00;99.90;;;;;;4973050;28;20546;-74
2021/03/24 13:06:07;;;;;;;3.40;1.55;;;15.90;99.90;;;;;;4974754;28;20668;-81
2021/03/24 13:08:39;;;;;;;9.93;2.58;;;15.70;99.90;;;;;;4958486;28;20622;-75
2021/03/24 13:11:21;;;;;;;1.45;1.15;;;15.80;99.90;;;;;;4974448;28;20265;-74
2021/03/24 13:14:14;;;;;;;5.32;2.35;;;15.90;99.90;;;;;;4974496;28;20260;-75
2021/03/24 13:17:00;;;;;;;4.45;3.15;;;15.90;99.90;;;;;;4974591;28;20637;-74
2021/03/24 13:19:44;;;;;;;1.50;0.60;;;16.00;99.90;;;;;;4974339;28;20162;-75
2021/03/24 13:22:19;;;;;;;12.55;2.20;;;16.20;99.90;;;;;;4956667;28;20256;-74
2021/03/24 13:24:54;;;;;;;5.70;1.90;;;16.40;99.90;;;;;;4974995;28;20622;-78
2021/03/24 13:27:57;;;;;;;6.50;1.80;;;16.50;99.90;;;;;;4974236;28;20692;-76
2021/03/24 13:30:56;;;;;;;2.25;2.13;;;16.60;99.90;;;;;;4974588;28;20174;-75
2021/03/24 13:33:28;;;;;;;4.90;1.70;;;16.90;99.90;;;;;;4922784;29;20226;-75
2021/03/24 13:35:59;;;;;;;6.75;3.17;;;16.80;99.90;;;;;;4937886;29;20578;-74
2021/03/24 13:38:49;;;;;;;2.17;2.08;;;16.70;99.90;;;;;;4954708;29;20220;-76
2021/03/24 13:41:16;;;;;;;4.88;3.90;;;16.60;99.90;;;;;;4937660;29;20202;-76
2021/03/24 13:43:47;;;;;;;1.70;1.60;;;16.60;99.90;;;;;;4954737;29;20213;-74
2021/03/24 13:46:20;;;;;;;3.00;1.67;;;16.60;99.90;;;;;;4954766;29;20526;-74